Airfield :
LOGIN :

Register | Disclaimer

   EN    FR    IT 

 










Legend :    VFR   Marginal VFR   IFR   Intensive IFR   Very Intensive IFR
Visi :
Ceiling :
>= 8 km
>= 3000ft
5 to 8 km
1000 to 3000 ft
1500m to 5 km
500 to 1000 ft
800 to 1500m
200 to 500 ft
< 800m
< 200 ft
Symbols :   Thunderstorms  Fog  Heavy snow  Heavy precipitations  Wind > 20 kt
SIGMETs :     Misc.  Thunderstorms  Icing  Turbulence  Mountain Waves  Volcanic Ashes







- Airport Elevation : 74 ft
- IATA code : NDZ


ETMN - Cuxhaven Nordholz Sea AB

CURRENT METAR :
  • 211820Z 25017G29KT 9999 VCTS SCT025CB BKN040 BKN200 13/05 Q1006 BLU

EXPIRED METARs :
  • 211720Z 26014KT 9999 VCSH SCT025CB SCT060 BKN200 13/06 Q1005 BLU+
  • 211620Z 28023KT 9999 SCT025CB SCT250 13/06 Q1004 BLU+

TAF COR TAF ETMN
Valid from the 21 at 11:00 until the 21 at 20:00 UTC


211029Z 2111/2120 24025G35KT 9999 NSW SCT025 BKN040
TEMPO 2111/2120 25025G45KT 4000 SHRA SCT015 BKN020CB
PROB30 2118/2120 26028G48KT 3000 TSRA SCT015 BKN020CB
No reported NOTAMs for that airfield.



MET'MAP, your aeronautical weather chart ! - Copyright ORBIFLY December 2007 - Disclaimer

ORBIFLY MET'MAP TEAM :

Programming & Development : Alexandra Zaïnal
Concept & Development : Baudouin d'Aumeries
Co-Development & Prog : Marc-Olivier Méhu
Technical & hardware support : Manuel Goepfert

Contact : metmap@orbifly.com




SOURCES & CREDITS :

   NOAA